createdAt,value
2018-08-24T00:01:01.412Z,3.93
2018-08-24T00:02:04.892Z,5.20
2018-08-24T00:03:08.361Z,5.73
2018-08-24T00:04:11.755Z,6.00
2018-08-24T00:05:15.238Z,2.30
2018-08-24T00:06:18.610Z,2.33
2018-08-24T00:07:22.157Z,4.50
2018-08-24T00:08:25.718Z,4.37
2018-08-24T00:09:29.101Z,8.13
2018-08-24T00:10:32.493Z,2.30
2018-08-24T00:11:35.900Z,3.73
2018-08-24T00:12:39.360Z,3.37
2018-08-24T00:13:42.816Z,2.97
2018-08-24T00:14:46.239Z,3.00
2018-08-24T00:15:49.637Z,5.23
2018-08-24T00:16:53.044Z,2.57
2018-08-24T00:17:56.454Z,3.80
2018-08-24T00:18:59.902Z,2.53
2018-08-24T00:20:03.465Z,2.90
2018-08-24T00:21:06.884Z,4.63
2018-08-24T00:22:10.312Z,6.37
2018-08-24T00:23:13.736Z,2.63
2018-08-24T00:24:17.195Z,2.37
2018-08-24T00:25:20.612Z,2.43
2018-08-24T00:26:24.024Z,3.60
2018-08-24T00:27:27.502Z,2.87
2018-08-24T00:28:30.948Z,2.73
2018-08-24T00:29:34.376Z,2.50
2018-08-24T00:30:37.747Z,3.00
2018-08-24T00:31:41.579Z,3.40
2018-08-24T00:32:44.931Z,2.43
2018-08-24T00:33:52.639Z,3.50
2018-08-24T00:34:56.064Z,2.60
2018-08-24T00:35:59.566Z,2.37
2018-08-24T00:37:02.984Z,2.50
2018-08-24T00:38:06.772Z,4.53
2018-08-24T00:39:10.192Z,2.83
2018-08-24T00:40:13.629Z,3.60
2018-08-24T00:41:17.047Z,2.93
2018-08-24T00:42:20.487Z,2.63
2018-08-24T00:43:23.920Z,4.40
2018-08-24T00:44:27.282Z,4.53
2018-08-24T00:45:30.680Z,2.53
2018-08-24T00:46:34.103Z,1.87
2018-08-24T00:47:37.530Z,2.27
2018-08-24T00:48:40.980Z,6.33
2018-08-24T00:49:44.418Z,2.30
2018-08-24T00:50:47.809Z,3.03
2018-08-24T00:51:51.235Z,9.90
2018-08-24T00:52:54.621Z,4.13
2018-08-24T00:53:58.074Z,2.70
2018-08-24T00:55:01.496Z,4.43
2018-08-24T00:56:04.877Z,2.40
2018-08-24T00:57:08.250Z,3.10
2018-08-24T00:58:11.668Z,2.40
2018-08-24T00:59:15.064Z,2.87
2018-08-24T01:00:18.628Z,3.33
2018-08-24T01:01:22.075Z,11.63
2018-08-24T01:02:25.513Z,2.10
2018-08-24T01:03:29.299Z,3.03
2018-08-24T01:04:33.500Z,2.30
2018-08-24T01:05:36.958Z,2.83
2018-08-24T01:06:40.375Z,2.43
2018-08-24T01:07:49.016Z,3.93
2018-08-24T01:08:52.538Z,4.03
2018-08-24T01:09:55.973Z,2.20
2018-08-24T01:10:59.410Z,2.20
2018-08-24T01:12:08.041Z,3.10
2018-08-24T01:13:14.862Z,2.70
2018-08-24T01:14:18.276Z,2.20
2018-08-24T01:15:21.707Z,3.67
2018-08-24T01:16:30.320Z,2.90
2018-08-24T01:17:38.905Z,3.53
2018-08-24T01:18:48.322Z,3.27
2018-08-24T01:19:51.982Z,2.30
2018-08-24T01:20:56.036Z,2.33
2018-08-24T01:21:59.455Z,2.10
2018-08-24T01:23:02.852Z,3.10
2018-08-24T01:24:06.682Z,2.27
2018-08-24T01:25:10.114Z,1.90
2018-08-24T01:26:13.542Z,3.53
2018-08-24T01:27:16.943Z,3.10
2018-08-24T01:28:20.690Z,2.53
2018-08-24T01:29:24.103Z,2.70
2018-08-24T01:30:27.539Z,3.00
2018-08-24T01:31:30.900Z,2.23
2018-08-24T01:32:34.327Z,5.50
2018-08-24T01:33:37.750Z,2.10
2018-08-24T01:34:41.121Z,4.90
2018-08-24T01:35:44.768Z,2.23
2018-08-24T01:36:48.139Z,3.23
2018-08-24T01:37:51.534Z,2.20
2018-08-24T01:38:54.946Z,2.20
2018-08-24T01:39:58.388Z,4.07
2018-08-24T01:41:01.778Z,2.30
2018-08-24T01:42:05.213Z,2.30
2018-08-24T01:43:09.649Z,2.30
2018-08-24T01:44:13.061Z,1.57
2018-08-24T01:45:16.484Z,3.40
2018-08-24T01:46:19.877Z,2.87
2018-08-24T01:47:24.219Z,1.73
2018-08-24T01:48:27.624Z,2.67
2018-08-24T01:49:31.017Z,3.03
2018-08-24T01:50:34.525Z,2.70
2018-08-24T01:51:37.904Z,3.70
2018-08-24T01:52:41.291Z,2.03
2018-08-24T01:53:44.688Z,2.60
2018-08-24T01:54:48.061Z,4.17
2018-08-24T01:55:51.589Z,2.33
2018-08-24T01:56:54.999Z,3.33
2018-08-24T01:57:58.418Z,9.93
2018-08-24T01:59:01.850Z,2.20
2018-08-24T02:00:05.736Z,3.43
2018-08-24T02:01:09.125Z,2.83
2018-08-24T02:02:12.601Z,6.10
2018-08-24T02:03:16.049Z,3.97
2018-08-24T02:04:19.438Z,2.17
2018-08-24T02:05:22.908Z,1.77
2018-08-24T02:06:26.336Z,5.73
2018-08-24T02:07:29.811Z,3.40
2018-08-24T02:08:33.310Z,2.83
2018-08-24T02:09:36.693Z,3.50
2018-08-24T02:10:40.095Z,3.07
2018-08-24T02:11:43.533Z,4.83
2018-08-24T02:12:52.193Z,2.60
2018-08-24T02:14:00.928Z,2.20
2018-08-24T02:15:04.423Z,1.63
2018-08-24T02:16:07.885Z,2.93
2018-08-24T02:17:16.674Z,2.13
2018-08-24T02:18:25.486Z,2.07
2018-08-24T02:20:36.166Z,3.33
2018-08-24T02:21:44.979Z,1.63
2018-08-24T02:22:53.116Z,3.53
2018-08-24T02:23:56.567Z,3.10
2018-08-24T02:24:59.957Z,6.40
2018-08-24T02:26:03.365Z,3.20
2018-08-24T02:27:06.746Z,3.00
2018-08-24T02:28:10.188Z,3.13
2018-08-24T02:29:13.674Z,4.23
2018-08-24T02:30:17.124Z,3.63
2018-08-24T02:31:20.641Z,1.70
2018-08-24T02:32:23.988Z,2.00
2018-08-24T02:33:27.422Z,3.10
2018-08-24T02:34:30.840Z,1.93
2018-08-24T02:35:34.234Z,2.00
2018-08-24T02:36:37.723Z,2.40
2018-08-24T02:37:41.127Z,2.00
2018-08-24T02:38:44.525Z,6.10
2018-08-24T02:39:47.970Z,2.47
2018-08-24T02:40:51.376Z,2.57
2018-08-24T02:41:54.792Z,2.60
2018-08-24T02:42:58.205Z,2.67
2018-08-24T02:44:01.602Z,1.97
2018-08-24T02:45:05.398Z,2.13
2018-08-24T02:46:10.140Z,8.73
2018-08-24T02:47:14.614Z,4.50
2018-08-24T02:48:18.041Z,6.50
2018-08-24T02:49:21.548Z,3.83
2018-08-24T02:50:24.944Z,2.67
2018-08-24T02:51:28.358Z,2.70
2018-08-24T02:52:31.777Z,2.00
2018-08-24T02:53:35.169Z,2.87
2018-08-24T02:54:38.617Z,1.77
2018-08-24T02:55:42.083Z,2.23
2018-08-24T02:56:45.480Z,2.93
2018-08-24T02:57:48.875Z,2.73
2018-08-24T02:58:52.488Z,2.87
2018-08-24T02:59:55.890Z,2.17
2018-08-24T03:00:59.371Z,2.33
2018-08-24T03:02:02.979Z,2.20
2018-08-24T03:03:06.622Z,1.60
2018-08-24T03:04:10.011Z,1.70
2018-08-24T03:05:13.474Z,2.27
2018-08-24T03:06:17.068Z,1.60
2018-08-24T03:07:20.530Z,2.33
2018-08-24T03:08:23.986Z,3.13
2018-08-24T03:09:27.387Z,1.70
2018-08-24T03:10:30.845Z,1.53
2018-08-24T03:11:34.265Z,1.57
2018-08-24T03:12:37.687Z,1.83
2018-08-24T03:13:41.091Z,2.50
2018-08-24T03:14:44.467Z,1.57
2018-08-24T03:15:47.864Z,1.60
2018-08-24T03:16:56.572Z,1.70
2018-08-24T03:17:59.962Z,1.63
2018-08-24T03:19:03.617Z,1.50
2018-08-24T03:20:07.060Z,1.37
2018-08-24T03:21:10.478Z,1.87
2018-08-24T03:22:13.856Z,2.17
2018-08-24T03:23:17.254Z,1.80
2018-08-24T03:24:20.682Z,2.10
2018-08-24T03:25:24.121Z,1.60
2018-08-24T03:26:27.556Z,1.93
2018-08-24T03:27:30.975Z,1.70
2018-08-24T03:28:34.365Z,1.53
2018-08-24T03:29:37.785Z,1.60
2018-08-24T03:30:41.171Z,2.30
2018-08-24T03:31:44.580Z,1.47
2018-08-24T03:32:47.980Z,1.80
2018-08-24T03:33:51.354Z,1.67
2018-08-24T03:34:54.783Z,1.73
2018-08-24T03:35:58.176Z,1.90
2018-08-24T03:37:01.557Z,1.80
2018-08-24T03:38:04.991Z,1.60
2018-08-24T03:39:09.714Z,1.67
2018-08-24T03:40:13.123Z,2.27
2018-08-24T03:41:16.576Z,3.00
2018-08-24T03:42:20.396Z,2.73
2018-08-24T03:43:23.834Z,2.63
2018-08-24T03:44:27.216Z,1.83
2018-08-24T03:45:30.587Z,3.33
2018-08-24T03:46:33.974Z,2.03
2018-08-24T03:47:37.375Z,2.50
2018-08-24T03:48:40.779Z,2.10
2018-08-24T03:49:44.198Z,3.23
2018-08-24T03:50:47.618Z,1.80
2018-08-24T03:51:51.133Z,1.60
2018-08-24T03:52:54.580Z,2.33
2018-08-24T03:53:57.974Z,3.20
2018-08-24T03:55:01.349Z,6.50
2018-08-24T03:56:04.781Z,1.50
2018-08-24T03:57:08.210Z,1.87
2018-08-24T03:58:11.601Z,1.70
2018-08-24T03:59:15.013Z,2.07
2018-08-24T04:00:18.505Z,3.93
2018-08-24T04:01:21.909Z,2.30
2018-08-24T04:02:25.375Z,6.13
2018-08-24T04:03:29.680Z,1.93
2018-08-24T04:04:33.042Z,3.90
2018-08-24T04:05:36.429Z,2.40
2018-08-24T04:06:39.818Z,7.10
2018-08-24T04:07:43.888Z,2.83
2018-08-24T04:08:47.298Z,5.43
2018-08-24T04:09:50.671Z,2.77
2018-08-24T04:10:54.072Z,2.00
2018-08-24T04:11:57.450Z,2.70
2018-08-24T04:13:00.864Z,2.23
2018-08-24T04:14:04.255Z,3.90
2018-08-24T04:15:07.715Z,4.00
2018-08-24T04:16:12.376Z,1.67
2018-08-24T04:17:21.085Z,3.43
2018-08-24T04:18:24.491Z,5.90
2018-08-24T04:19:28.730Z,2.83
2018-08-24T04:20:32.128Z,3.37
2018-08-24T04:21:35.539Z,4.60
2018-08-24T04:22:38.976Z,1.53
2018-08-24T04:23:42.959Z,2.53
2018-08-24T04:24:46.383Z,3.53
2018-08-24T04:25:49.834Z,6.10
2018-08-24T04:26:54.132Z,4.23
2018-08-24T04:27:57.740Z,3.67
2018-08-24T04:29:01.173Z,1.73
2018-08-24T04:30:04.636Z,3.60
2018-08-24T04:31:08.033Z,2.87
2018-08-24T04:32:11.430Z,4.17
2018-08-24T04:33:14.876Z,3.53
2018-08-24T04:34:18.342Z,1.60
2018-08-24T04:35:21.732Z,3.43
2018-08-24T04:36:25.125Z,7.77
2018-08-24T04:37:28.536Z,8.10
2018-08-24T04:38:31.938Z,3.40
2018-08-24T04:39:35.368Z,8.13
2018-08-24T04:40:38.888Z,7.83
2018-08-24T04:41:42.993Z,7.60
2018-08-24T04:42:46.400Z,3.80
2018-08-24T04:43:49.789Z,7.70
2018-08-24T04:44:53.276Z,3.37
2018-08-24T04:45:56.677Z,4.83
2018-08-24T04:47:00.097Z,6.30
2018-08-24T04:48:03.467Z,7.33
2018-08-24T04:49:07.298Z,8.70
2018-08-24T04:50:10.711Z,5.13
2018-08-24T04:51:14.118Z,5.67
2018-08-24T04:52:17.653Z,4.57
2018-08-24T04:53:21.088Z,5.60
2018-08-24T04:54:24.559Z,5.07
2018-08-24T04:55:27.987Z,6.57
2018-08-24T04:56:31.736Z,16.93
2018-08-24T04:57:35.102Z,10.23
2018-08-24T04:58:38.495Z,6.90
2018-08-24T04:59:41.922Z,6.50
2018-08-24T05:00:45.350Z,8.30
2018-08-24T05:01:48.711Z,5.40
2018-08-24T05:02:52.082Z,6.97
2018-08-24T05:03:55.591Z,9.80
2018-08-24T05:04:58.957Z,6.10
2018-08-24T05:06:02.334Z,6.20
2018-08-24T05:07:05.758Z,7.30
2018-08-24T05:08:09.168Z,5.93
2018-08-24T05:09:12.582Z,7.17
2018-08-24T05:10:15.994Z,8.30
2018-08-24T05:11:19.491Z,6.67
2018-08-24T05:12:23.013Z,10.37
2018-08-24T05:13:26.467Z,7.50
2018-08-24T05:14:30.113Z,12.37
2018-08-24T05:15:34.163Z,6.63
2018-08-24T05:16:37.662Z,9.30
2018-08-24T05:17:41.137Z,8.30
2018-08-24T05:18:44.533Z,6.77
2018-08-24T05:19:47.975Z,9.50
2018-08-24T05:20:51.514Z,5.37
2018-08-24T05:21:54.928Z,6.53
2018-08-24T05:22:58.346Z,6.13
2018-08-24T05:24:01.752Z,6.10
2018-08-24T05:25:05.547Z,14.63
2018-08-24T05:26:08.960Z,7.60
2018-08-24T05:27:12.375Z,5.70
2018-08-24T05:28:16.229Z,8.33
2018-08-24T05:29:19.575Z,9.27
2018-08-24T05:30:22.997Z,7.93
2018-08-24T05:31:26.444Z,12.53
2018-08-24T05:32:29.828Z,15.17
2018-08-24T05:33:33.220Z,9.03
2018-08-24T05:34:36.644Z,9.30
2018-08-24T05:35:40.266Z,10.53
2018-08-24T05:36:43.600Z,7.60
2018-08-24T05:37:47.056Z,9.77
2018-08-24T05:38:50.449Z,8.03
2018-08-24T05:39:53.899Z,10.17
2018-08-24T05:40:57.523Z,7.70
2018-08-24T05:42:01.002Z,8.97
2018-08-24T05:43:04.693Z,10.70
2018-08-24T05:44:08.106Z,7.70
2018-08-24T05:45:11.552Z,11.47
2018-08-24T05:46:14.961Z,7.30
2018-08-24T05:47:18.528Z,8.03
2018-08-24T05:48:21.933Z,13.27
2018-08-24T05:49:25.346Z,7.87
2018-08-24T05:50:28.768Z,10.30
2018-08-24T05:51:32.184Z,13.13
2018-08-24T05:52:35.557Z,9.83
2018-08-24T05:53:38.922Z,13.07
2018-08-24T05:54:42.310Z,12.23
2018-08-24T05:55:45.870Z,11.47
2018-08-24T05:56:49.304Z,17.23
2018-08-24T05:57:52.779Z,14.53
2018-08-24T05:58:56.265Z,13.90
2018-08-24T05:59:59.672Z,12.97
2018-08-24T06:01:03.188Z,11.43
2018-08-24T06:02:06.686Z,12.50
2018-08-24T06:03:10.592Z,9.67
2018-08-24T06:04:13.998Z,16.13
2018-08-24T06:05:17.392Z,9.30
2018-08-24T06:06:20.816Z,7.90
2018-08-24T06:07:24.242Z,11.83
2018-08-24T06:08:27.634Z,12.83
2018-08-24T06:09:31.047Z,18.03
2018-08-24T06:10:34.470Z,10.50
2018-08-24T06:11:37.952Z,14.23
2018-08-24T06:12:41.338Z,13.63
2018-08-24T06:13:44.831Z,21.27
2018-08-24T06:14:48.223Z,16.97
2018-08-24T06:15:51.722Z,12.27
2018-08-24T06:17:00.300Z,14.60
2018-08-24T06:18:03.974Z,15.60
2018-08-24T06:19:08.249Z,11.63
2018-08-24T06:20:11.745Z,10.97
2018-08-24T06:21:15.150Z,14.73
2018-08-24T06:22:18.589Z,13.90
2018-08-24T06:23:22.050Z,12.10
2018-08-24T06:24:25.508Z,10.00
2018-08-24T06:25:30.603Z,9.90
2018-08-24T06:26:34.104Z,11.10
2018-08-24T06:27:37.523Z,13.60
2018-08-24T06:28:40.957Z,14.90
2018-08-24T06:29:44.354Z,11.40
2018-08-24T06:30:47.751Z,8.77
2018-08-24T06:31:51.177Z,22.63
2018-08-24T06:32:54.674Z,18.73
2018-08-24T06:33:58.038Z,9.33
2018-08-24T06:35:01.510Z,10.87
2018-08-24T06:36:04.951Z,10.37
2018-08-24T06:37:08.667Z,10.90
2018-08-24T06:38:12.072Z,13.03
2018-08-24T06:39:15.521Z,12.50
2018-08-24T06:40:19.480Z,13.77
2018-08-24T06:41:23.461Z,11.23
2018-08-24T06:42:26.968Z,12.63
2018-08-24T06:43:30.379Z,12.93
2018-08-24T06:44:33.856Z,9.13
2018-08-24T06:45:37.245Z,12.00
2018-08-24T06:46:40.691Z,10.70
2018-08-24T06:47:44.195Z,10.90
2018-08-24T06:48:47.775Z,9.17
2018-08-24T06:49:51.203Z,12.60
2018-08-24T06:50:54.625Z,12.23
2018-08-24T06:51:58.073Z,10.60
2018-08-24T06:53:01.586Z,12.83
2018-08-24T06:54:04.962Z,12.70
2018-08-24T06:55:08.383Z,12.90
2018-08-24T06:56:11.826Z,14.87
2018-08-24T06:57:15.418Z,13.70
2018-08-24T06:58:19.017Z,11.03
2018-08-24T06:59:22.526Z,8.30
2018-08-24T07:00:31.512Z,14.00
2018-08-24T07:01:34.929Z,9.53
2018-08-24T07:02:38.392Z,13.93
2018-08-24T07:03:41.848Z,10.90
2018-08-24T07:04:45.265Z,10.40
2018-08-24T07:05:48.666Z,13.13
2018-08-24T07:06:52.098Z,10.63
2018-08-24T07:07:55.578Z,17.17
2018-08-24T07:08:59.058Z,14.50
2018-08-24T07:10:02.507Z,13.80
2018-08-24T07:11:05.932Z,20.03
2018-08-24T07:12:12.068Z,14.70
2018-08-24T07:13:15.621Z,21.20
2018-08-24T07:14:19.120Z,22.20
2018-08-24T07:15:22.569Z,28.10
2018-08-24T07:16:26.012Z,38.70
2018-08-24T07:17:34.801Z,23.30
2018-08-24T07:18:38.244Z,25.20
2018-08-24T07:19:41.666Z,13.43
2018-08-24T07:20:45.084Z,18.70
2018-08-24T07:21:48.482Z,15.20
2018-08-24T07:22:52.526Z,20.33
2018-08-24T07:23:55.992Z,16.97
2018-08-24T07:24:59.612Z,15.17
2018-08-24T07:26:02.990Z,13.20
2018-08-24T07:27:06.413Z,12.00
2018-08-24T07:28:09.832Z,12.40
2018-08-24T07:29:13.274Z,15.40
2018-08-24T07:30:16.695Z,18.33
2018-08-24T07:31:20.099Z,13.87
2018-08-24T07:32:23.502Z,16.00
2018-08-24T07:33:26.931Z,15.70
2018-08-24T07:34:30.366Z,10.63
2018-08-24T07:35:33.764Z,14.00
2018-08-24T07:36:37.189Z,11.37
2018-08-24T07:37:40.769Z,16.97
2018-08-24T07:38:44.248Z,16.37
2018-08-24T07:39:47.721Z,13.27
2018-08-24T07:40:51.264Z,12.03
2018-08-24T07:41:54.772Z,12.30
2018-08-24T07:42:58.152Z,10.50
2018-08-24T07:44:01.560Z,10.83
2018-08-24T07:45:04.988Z,18.17
2018-08-24T07:46:08.426Z,10.80
2018-08-24T07:47:11.830Z,10.60
2018-08-24T07:48:15.222Z,15.53
2018-08-24T07:49:18.665Z,16.43
2018-08-24T07:50:23.027Z,11.50
2018-08-24T07:51:26.461Z,12.13
2018-08-24T07:52:29.852Z,15.80
2018-08-24T07:53:33.249Z,9.63
2018-08-24T07:54:36.676Z,13.60
2018-08-24T07:55:40.098Z,13.00
2018-08-24T07:56:43.538Z,9.10
2018-08-24T07:57:46.945Z,12.93
2018-08-24T07:58:50.437Z,14.40
2018-08-24T07:59:53.910Z,12.30
2018-08-24T08:00:57.423Z,8.77
2018-08-24T08:02:00.836Z,13.73
2018-08-24T08:03:04.268Z,9.90
2018-08-24T08:04:07.652Z,8.97
2018-08-24T08:05:11.148Z,9.37
2018-08-24T08:06:14.535Z,11.27
2018-08-24T08:07:17.969Z,11.23
2018-08-24T08:08:21.398Z,10.90
2018-08-24T08:09:24.886Z,8.47
2018-08-24T08:10:33.752Z,9.10
2018-08-24T08:11:39.263Z,12.30
2018-08-24T08:12:42.756Z,11.10
2018-08-24T08:13:46.152Z,6.53
2018-08-24T08:14:54.888Z,9.50
2018-08-24T08:15:58.295Z,9.97
2018-08-24T08:17:02.841Z,9.07
2018-08-24T08:18:06.344Z,13.63
2018-08-24T08:19:09.902Z,8.03
2018-08-24T08:20:13.281Z,10.77
2018-08-24T08:21:16.698Z,7.03
2018-08-24T08:22:20.113Z,8.90
2018-08-24T08:23:23.803Z,7.00
2018-08-24T08:24:27.240Z,6.80
2018-08-24T08:25:30.643Z,10.60
2018-08-24T08:26:34.088Z,8.60
2018-08-24T08:27:37.489Z,12.40
2018-08-24T08:28:40.911Z,9.20
2018-08-24T08:29:49.600Z,6.50
2018-08-24T08:30:53.106Z,9.13
2018-08-24T08:31:56.594Z,10.70
2018-08-24T08:33:00.011Z,9.93
2018-08-24T08:34:03.400Z,7.20
2018-08-24T08:35:06.774Z,7.83
2018-08-24T08:36:10.214Z,5.83
2018-08-24T08:37:13.670Z,8.13
2018-08-24T08:38:17.108Z,9.40
2018-08-24T08:39:20.624Z,5.20
2018-08-24T08:40:24.098Z,5.73
2018-08-24T08:41:27.525Z,7.47
2018-08-24T08:42:31.407Z,5.57
2018-08-24T08:43:34.915Z,9.90
2018-08-24T08:44:38.309Z,7.77
2018-08-24T08:45:41.765Z,6.40
2018-08-24T08:46:45.197Z,6.27
2018-08-24T08:47:48.634Z,6.40
2018-08-24T08:48:52.075Z,6.00
2018-08-24T08:49:55.572Z,10.47
2018-08-24T08:50:59.061Z,5.83
2018-08-24T08:52:02.492Z,6.97
2018-08-24T08:53:05.934Z,7.33
2018-08-24T08:54:09.336Z,9.83
2018-08-24T08:55:12.807Z,7.70
2018-08-24T08:56:16.192Z,7.90
2018-08-24T08:57:19.772Z,6.97
2018-08-24T08:58:23.229Z,6.37
2018-08-24T08:59:26.812Z,7.93
2018-08-24T09:00:30.296Z,7.97
2018-08-24T09:01:33.725Z,10.50
2018-08-24T09:02:37.144Z,5.40
2018-08-24T09:03:40.515Z,11.20
2018-08-24T09:04:44.022Z,6.30
2018-08-24T09:05:47.425Z,6.07
2018-08-24T09:06:50.861Z,9.10
2018-08-24T09:07:54.265Z,7.30
2018-08-24T09:08:57.677Z,7.53
2018-08-24T09:10:01.127Z,11.50
2018-08-24T09:11:04.498Z,6.60
2018-08-24T09:12:09.017Z,5.97
2018-08-24T09:13:12.455Z,5.80
2018-08-24T09:14:16.152Z,5.73
2018-08-24T09:15:19.587Z,7.20
2018-08-24T09:16:23.022Z,6.90
2018-08-24T09:17:31.707Z,5.83
2018-08-24T09:18:40.530Z,6.30
2018-08-24T09:19:49.295Z,7.17
2018-08-24T09:20:57.879Z,7.07
2018-08-24T09:22:06.671Z,7.03
2018-08-24T09:23:15.284Z,5.07
2018-08-24T09:24:24.117Z,7.00
2018-08-24T09:25:32.807Z,7.33
2018-08-24T09:26:41.614Z,6.07
2018-08-24T09:27:48.224Z,6.57
2018-08-24T09:28:53.007Z,6.50
2018-08-24T09:29:58.292Z,7.67
2018-08-24T09:31:05.144Z,7.07
2018-08-24T09:32:08.558Z,11.23
2018-08-24T09:33:12.010Z,5.30
2018-08-24T09:34:15.397Z,6.07
2018-08-24T09:35:18.871Z,6.33
2018-08-24T09:36:23.233Z,7.93
2018-08-24T09:37:31.939Z,6.30
2018-08-24T09:38:35.380Z,6.00
2018-08-24T09:39:38.812Z,5.43
2018-08-24T09:40:47.451Z,7.90
2018-08-24T09:41:50.866Z,6.93
2018-08-24T09:42:54.303Z,7.23
2018-08-24T09:43:59.839Z,8.57
2018-08-24T09:45:03.738Z,7.23
2018-08-24T09:46:07.191Z,5.73
2018-08-24T09:47:15.878Z,5.63
2018-08-24T09:48:24.620Z,7.40
2018-08-24T09:49:30.309Z,5.57
2018-08-24T09:50:39.140Z,5.27
2018-08-24T09:51:42.591Z,5.50
2018-08-24T09:52:51.290Z,12.20
2018-08-24T09:54:00.052Z,6.37
2018-08-24T09:55:03.520Z,5.73
2018-08-24T09:56:07.107Z,5.17
2018-08-24T09:57:10.532Z,6.13
2018-08-24T09:58:13.902Z,6.17
2018-08-24T09:59:17.300Z,5.40
2018-08-24T10:00:20.854Z,7.03
2018-08-24T10:01:29.426Z,6.10
2018-08-24T10:02:38.181Z,5.23
2018-08-24T10:03:46.948Z,5.83
2018-08-24T10:04:55.667Z,5.13
2018-08-24T10:06:04.491Z,6.37
2018-08-24T10:07:13.267Z,8.00
2018-08-24T10:08:22.098Z,7.43
2018-08-24T10:09:25.501Z,4.93
2018-08-24T10:10:28.940Z,6.53
2018-08-24T10:11:32.345Z,7.37
2018-08-24T10:12:36.288Z,6.70
2018-08-24T10:13:39.773Z,4.60
2018-08-24T10:14:43.186Z,5.70
2018-08-24T10:15:47.007Z,5.47
2018-08-24T10:16:50.390Z,6.67
2018-08-24T10:17:53.800Z,5.50
2018-08-24T10:18:57.335Z,6.83
2018-08-24T10:20:00.771Z,5.40
2018-08-24T10:21:04.269Z,6.30
2018-08-24T10:22:07.679Z,9.13
2018-08-24T10:23:11.135Z,5.60
2018-08-24T10:24:14.529Z,7.30
2018-08-24T10:25:18.629Z,4.73
2018-08-24T10:26:22.445Z,5.13
2018-08-24T10:27:25.868Z,5.00
2018-08-24T10:28:29.241Z,4.77
2018-08-24T10:29:32.702Z,6.23
2018-08-24T10:30:36.109Z,5.40
2018-08-24T10:31:39.552Z,4.70
2018-08-24T10:32:42.969Z,6.33
2018-08-24T10:33:46.555Z,6.93
2018-08-24T10:34:49.920Z,5.17
2018-08-24T10:35:53.437Z,4.80
2018-08-24T10:36:56.888Z,5.00
2018-08-24T10:38:00.304Z,4.30
2018-08-24T10:39:04.642Z,7.10
2018-08-24T10:40:07.989Z,5.40
2018-08-24T10:41:11.701Z,13.27
2018-08-24T10:42:15.127Z,5.07
2018-08-24T10:43:18.529Z,5.97
2018-08-24T10:44:21.960Z,5.10
2018-08-24T10:45:25.493Z,5.13
2018-08-24T10:46:28.914Z,7.70
2018-08-24T10:47:32.317Z,6.20
2018-08-24T10:48:35.834Z,5.40
2018-08-24T10:49:39.228Z,6.47
2018-08-24T10:50:42.705Z,4.50
2018-08-24T10:51:46.111Z,5.23
2018-08-24T10:52:49.520Z,4.33
2018-08-24T10:53:52.965Z,4.90
2018-08-24T10:54:56.389Z,4.30
2018-08-24T10:55:59.899Z,6.70
2018-08-24T10:57:03.295Z,4.20
2018-08-24T10:58:06.709Z,5.23
2018-08-24T10:59:10.082Z,5.37
2018-08-24T11:00:13.482Z,5.10
2018-08-24T11:01:16.867Z,5.20
2018-08-24T11:02:20.280Z,4.77
2018-08-24T11:03:23.960Z,5.97
2018-08-24T11:04:27.379Z,5.33
2018-08-24T11:05:30.900Z,5.83
2018-08-24T11:06:34.226Z,6.20
2018-08-24T11:07:37.696Z,4.60
2018-08-24T11:08:41.105Z,5.03
2018-08-24T11:09:44.504Z,5.27
2018-08-24T11:10:47.878Z,4.70
2018-08-24T11:11:51.276Z,4.50
2018-08-24T11:12:54.841Z,11.57
2018-08-24T11:13:58.259Z,4.30
2018-08-24T11:15:03.623Z,10.07
2018-08-24T11:16:07.325Z,7.80
2018-08-24T11:17:10.731Z,12.13
2018-08-24T11:18:14.186Z,11.93
2018-08-24T11:19:17.595Z,7.70
2018-08-24T11:20:21.024Z,15.07
2018-08-24T11:21:24.455Z,7.77
2018-08-24T11:22:27.996Z,8.80
2018-08-24T11:23:31.392Z,7.97
2018-08-24T11:24:34.788Z,11.33
2018-08-24T11:25:38.480Z,21.97
2018-08-24T11:26:41.934Z,7.83
2018-08-24T11:27:45.363Z,13.10
2018-08-24T11:28:48.823Z,11.13
2018-08-24T11:29:52.248Z,14.43
2018-08-24T11:30:55.728Z,17.83
2018-08-24T11:31:59.120Z,13.00
2018-08-24T11:33:02.634Z,10.43
2018-08-24T11:34:06.076Z,11.73
2018-08-24T11:35:09.504Z,8.30
2018-08-24T11:36:12.993Z,10.53
2018-08-24T11:37:16.331Z,7.20
2018-08-24T11:38:19.756Z,13.43
2018-08-24T11:39:23.222Z,16.70
2018-08-24T11:40:26.646Z,35.97
2018-08-24T11:41:30.060Z,10.20
2018-08-24T11:42:33.496Z,11.23
2018-08-24T11:43:36.889Z,85.77
2018-08-24T11:44:40.293Z,45.50
2018-08-24T11:45:43.687Z,104.73
2018-08-24T11:46:47.114Z,71.43
2018-08-24T11:47:50.607Z,66.47
2018-08-24T11:48:54.115Z,60.57
2018-08-24T11:49:57.536Z,58.33
2018-08-24T11:51:01.354Z,41.40
2018-08-24T11:52:04.761Z,36.80
2018-08-24T11:53:08.199Z,29.60
2018-08-24T11:54:11.697Z,32.27
2018-08-24T11:55:15.119Z,32.93
2018-08-24T11:56:18.530Z,27.27
2018-08-24T11:57:22.161Z,27.80
2018-08-24T11:58:25.617Z,25.63
2018-08-24T11:59:29.022Z,20.30
2018-08-24T12:00:33.457Z,20.13
2018-08-24T12:01:36.848Z,19.33
2018-08-24T12:02:40.272Z,40.70
2018-08-24T12:03:43.648Z,24.07
2018-08-24T12:04:47.069Z,21.90
2018-08-24T12:05:50.491Z,25.70
2018-08-24T12:06:53.957Z,19.80
2018-08-24T12:07:57.651Z,18.47
2018-08-24T12:09:01.036Z,14.60
2018-08-24T12:10:04.497Z,16.80
2018-08-24T12:11:07.920Z,9.23
2018-08-24T12:12:11.341Z,8.23
2018-08-24T12:13:14.781Z,9.87
2018-08-24T12:14:18.252Z,9.63
2018-08-24T12:15:22.315Z,7.00
2018-08-24T12:16:25.769Z,9.10
2018-08-24T12:17:33.215Z,4.70
2018-08-24T12:18:36.723Z,6.17
2018-08-24T12:19:40.146Z,4.33
2018-08-24T12:20:43.618Z,8.73
2018-08-24T12:21:47.028Z,8.73
2018-08-24T12:22:50.466Z,4.30
2018-08-24T12:23:53.886Z,9.13
2018-08-24T12:24:57.296Z,5.00
2018-08-24T12:26:00.796Z,3.70
2018-08-24T12:27:04.253Z,4.90
2018-08-24T12:28:07.718Z,8.90
2018-08-24T12:29:11.360Z,3.63
2018-08-24T12:30:14.888Z,7.00
2018-08-24T12:31:18.436Z,4.20
2018-08-24T12:32:21.884Z,7.63
2018-08-24T12:33:25.433Z,6.50
2018-08-24T12:34:28.883Z,5.23
2018-08-24T12:35:32.296Z,8.87
2018-08-24T12:36:35.804Z,12.30
2018-08-24T12:37:43.645Z,2.53
2018-08-24T12:38:47.259Z,3.40
2018-08-24T12:39:51.230Z,3.70
2018-08-24T12:40:54.670Z,6.03
2018-08-24T12:41:58.086Z,7.30
2018-08-24T12:43:01.482Z,5.93
2018-08-24T12:44:04.908Z,4.43
2018-08-24T12:45:08.324Z,5.40
2018-08-24T12:46:11.845Z,7.07
2018-08-24T12:47:15.265Z,10.00
2018-08-24T12:48:18.648Z,3.57
2018-08-24T12:49:22.112Z,4.30
2018-08-24T12:50:25.513Z,5.07
2018-08-24T12:51:29.269Z,5.23
2018-08-24T12:52:32.703Z,6.23
2018-08-24T12:53:36.839Z,3.87
2018-08-24T12:54:40.248Z,8.87
2018-08-24T12:55:43.633Z,7.03
2018-08-24T12:56:47.157Z,4.97
2018-08-24T12:57:50.550Z,5.20
2018-08-24T12:58:54.155Z,7.37
2018-08-24T12:59:58.196Z,5.80
2018-08-24T13:01:01.567Z,10.40
2018-08-24T13:02:05.079Z,4.13
2018-08-24T13:03:08.463Z,9.97
2018-08-24T13:04:11.872Z,9.70
2018-08-24T13:05:15.286Z,8.03
2018-08-24T13:06:18.723Z,4.90
2018-08-24T13:07:22.265Z,6.57
2018-08-24T13:08:25.696Z,6.57
2018-08-24T13:09:29.120Z,4.80
2018-08-24T13:10:32.504Z,3.80
2018-08-24T13:11:35.940Z,11.30
2018-08-24T13:12:39.372Z,7.60
2018-08-24T13:13:42.964Z,10.30
2018-08-24T13:14:46.379Z,11.33
2018-08-24T13:15:49.772Z,8.53
2018-08-24T13:16:53.203Z,6.73
2018-08-24T13:17:56.637Z,8.03
2018-08-24T13:19:00.058Z,8.23
2018-08-24T13:20:03.569Z,6.87
2018-08-24T13:21:07.034Z,13.30
2018-08-24T13:22:10.437Z,9.80
2018-08-24T13:23:13.988Z,17.70
2018-08-24T13:24:18.064Z,7.30
2018-08-24T13:25:21.446Z,9.30
2018-08-24T13:26:24.869Z,5.77
2018-08-24T13:27:28.341Z,4.97
2018-08-24T13:28:31.756Z,7.20
2018-08-24T13:29:35.156Z,7.20
2018-08-24T13:30:38.546Z,6.03
2018-08-24T13:31:42.030Z,4.50
2018-08-24T13:32:45.434Z,8.43
2018-08-24T13:33:49.045Z,5.57
2018-08-24T13:34:52.475Z,13.57
2018-08-24T13:35:55.974Z,11.93
2018-08-24T13:36:59.367Z,6.83
2018-08-24T13:38:02.823Z,4.00
2018-08-24T13:39:08.189Z,6.10
2018-08-24T13:40:11.729Z,19.80
2018-08-24T13:41:15.174Z,8.90
2018-08-24T13:42:18.579Z,17.47
2018-08-24T13:43:22.028Z,15.60
2018-08-24T13:44:25.488Z,4.43
2018-08-24T13:45:29.186Z,11.00
2018-08-24T13:46:32.579Z,11.13
2018-08-24T13:47:36.110Z,9.87
2018-08-24T13:48:39.489Z,9.00
2018-08-24T13:49:42.917Z,9.63
2018-08-24T13:50:46.304Z,8.60
2018-08-24T13:51:49.727Z,5.97
2018-08-24T13:52:53.326Z,4.37
2018-08-24T13:53:56.714Z,11.90
2018-08-24T13:55:00.171Z,10.63
2018-08-24T13:56:03.578Z,16.70
2018-08-24T13:57:07.035Z,8.00
2018-08-24T13:58:13.860Z,5.23
2018-08-24T13:59:17.253Z,3.13
2018-08-24T14:00:20.763Z,5.70
2018-08-24T14:01:24.267Z,8.30
2018-08-24T14:02:27.680Z,3.13
2018-08-24T14:03:31.155Z,4.53